createdAt,value
2023-05-09T00:01:22.598Z,14.99
2023-05-09T00:03:02.336Z,14.98
2023-05-09T00:04:42.113Z,14.94
2023-05-09T00:06:21.889Z,14.94
2023-05-09T00:08:01.644Z,14.9
2023-05-09T00:09:41.404Z,14.89
2023-05-09T00:11:21.224Z,14.85
2023-05-09T00:13:00.931Z,14.83
2023-05-09T00:14:40.763Z,14.82
2023-05-09T00:16:20.474Z,14.79
2023-05-09T00:18:00.239Z,14.77
2023-05-09T00:19:40.012Z,14.76
2023-05-09T00:21:19.769Z,14.72
2023-05-09T00:22:59.558Z,14.69
2023-05-09T00:24:39.318Z,14.68
2023-05-09T00:26:19.155Z,14.66
2023-05-09T00:27:58.858Z,14.66
2023-05-09T00:29:38.672Z,14.63
2023-05-09T00:31:18.381Z,14.61
2023-05-09T00:32:58.206Z,14.57
2023-05-09T00:34:37.937Z,14.56
2023-05-09T00:36:17.743Z,14.54
2023-05-09T00:37:57.475Z,14.52
2023-05-09T00:39:37.203Z,14.51
2023-05-09T00:41:16.991Z,14.45
2023-05-09T00:42:56.757Z,14.46
2023-05-09T00:44:36.552Z,14.42
2023-05-09T00:46:16.318Z,14.41
2023-05-09T00:47:56.064Z,14.39
2023-05-09T00:49:35.834Z,14.37
2023-05-09T00:51:15.595Z,14.36
2023-05-09T00:52:55.347Z,14.32
2023-05-09T00:54:35.127Z,14.29
2023-05-09T00:56:15.033Z,14.28
2023-05-09T00:57:54.691Z,14.25
2023-05-09T01:01:14.187Z,14.21
2023-05-09T01:02:53.999Z,14.2
2023-05-09T01:04:33.736Z,14.16
2023-05-09T01:06:13.492Z,14.14
2023-05-09T01:07:53.283Z,14.13
2023-05-09T01:09:33.096Z,14.1
2023-05-09T01:11:12.790Z,14.1
2023-05-09T01:12:52.578Z,14.05
2023-05-09T01:14:32.324Z,14.06
2023-05-09T01:16:12.097Z,14.04
2023-05-09T01:17:51.868Z,14.01
2023-05-09T01:19:31.639Z,13.99
2023-05-09T01:21:11.404Z,13.95
2023-05-09T01:22:51.172Z,13.95
2023-05-09T01:24:30.961Z,13.94
2023-05-09T01:26:10.712Z,13.89
2023-05-09T01:27:50.478Z,13.87
2023-05-09T01:31:10.068Z,13.84
2023-05-09T01:32:49.796Z,13.83
2023-05-09T01:34:29.564Z,13.82
2023-05-09T01:36:09.537Z,13.8
2023-05-09T01:37:49.074Z,13.76
2023-05-09T01:39:28.851Z,13.74
2023-05-09T01:41:08.613Z,13.73
2023-05-09T01:42:48.384Z,13.71
2023-05-09T01:44:28.170Z,13.69
2023-05-09T01:46:07.918Z,13.69
2023-05-09T01:47:47.682Z,13.67
2023-05-09T01:49:27.504Z,13.65
2023-05-09T01:51:07.240Z,13.61
2023-05-09T01:52:46.999Z,13.6
2023-05-09T01:54:26.793Z,13.58
2023-05-09T01:56:06.571Z,13.57
2023-05-09T01:57:46.312Z,13.57
2023-05-09T01:59:26.058Z,13.52
2023-05-09T02:01:05.833Z,13.53
2023-05-09T02:02:45.667Z,13.5
2023-05-09T02:04:25.363Z,13.49
2023-05-09T02:06:05.162Z,13.46
2023-05-09T02:07:44.899Z,13.45
2023-05-09T02:09:24.657Z,13.45
2023-05-09T02:11:04.441Z,13.41
2023-05-09T02:12:44.217Z,13.4
2023-05-09T02:14:23.986Z,13.38
2023-05-09T02:16:03.820Z,13.37
2023-05-09T02:17:43.526Z,13.37
2023-05-09T02:19:23.301Z,13.34
2023-05-09T02:21:03.040Z,13.32
2023-05-09T02:22:42.789Z,13.32
2023-05-09T02:24:22.566Z,13.31
2023-05-09T02:26:02.437Z,13.29
2023-05-09T02:27:42.112Z,13.25
2023-05-09T02:29:21.860Z,13.26
2023-05-09T02:31:01.726Z,13.22
2023-05-09T02:32:41.423Z,13.22
2023-05-09T02:34:21.284Z,13.19
2023-05-09T02:36:00.927Z,13.18
2023-05-09T02:37:40.720Z,13.16
2023-05-09T02:39:20.490Z,13.14
2023-05-09T02:41:00.246Z,13.15
2023-05-09T02:42:40.011Z,13.15
2023-05-09T02:44:19.774Z,13.1
2023-05-09T02:45:59.597Z,13.09
2023-05-09T02:47:39.308Z,13.07
2023-05-09T02:49:19.081Z,13.08
2023-05-09T02:50:58.846Z,13.05
2023-05-09T02:52:38.605Z,13.05
2023-05-09T02:54:18.384Z,13.03
2023-05-09T02:55:58.187Z,13.03
2023-05-09T02:57:37.911Z,12.98
2023-05-09T02:59:17.683Z,13.04
2023-05-09T03:00:57.467Z,12.99
2023-05-09T03:02:37.202Z,13
2023-05-09T03:04:16.996Z,13.04
2023-05-09T03:05:56.756Z,13.02
2023-05-09T03:07:36.509Z,13.06
2023-05-09T03:09:16.292Z,13.06
2023-05-09T03:10:56.066Z,13.04
2023-05-09T03:12:35.813Z,13.06
2023-05-09T03:14:15.603Z,13.09
2023-05-09T03:15:55.362Z,13.07
2023-05-09T03:17:35.134Z,13.1
2023-05-09T03:19:14.961Z,13.12
2023-05-09T03:20:54.672Z,13.11
2023-05-09T03:22:34.417Z,13.11
2023-05-09T03:24:14.194Z,13.12
2023-05-09T03:25:53.962Z,13.11
2023-05-09T03:27:33.716Z,13.13
2023-05-09T03:29:13.513Z,13.11
2023-05-09T03:30:53.259Z,13.12
2023-05-09T03:32:33.028Z,13.13
2023-05-09T03:34:12.798Z,13.13
2023-05-09T03:35:52.568Z,13.11
2023-05-09T03:37:32.325Z,13.1
2023-05-09T03:39:12.100Z,13.12
2023-05-09T03:40:51.861Z,13.11
2023-05-09T03:42:31.665Z,13.12
2023-05-09T03:44:11.389Z,13.11
2023-05-09T03:45:51.183Z,13.1
2023-05-09T03:47:30.976Z,13.13
2023-05-09T03:49:10.709Z,13.09
2023-05-09T03:50:50.486Z,13.09
2023-05-09T03:52:30.247Z,13.12
2023-05-09T03:54:10.019Z,13.12
2023-05-09T03:55:49.822Z,13.09
2023-05-09T03:57:29.588Z,13.08
2023-05-09T03:59:09.396Z,13.11
2023-05-09T04:00:49.099Z,13.07
2023-05-09T04:02:28.867Z,13.09
2023-05-09T04:04:08.648Z,13.09
2023-05-09T04:05:48.424Z,13.12
2023-05-09T04:07:28.190Z,13.09
2023-05-09T04:09:07.991Z,13.05
2023-05-09T04:10:47.733Z,13.07
2023-05-09T04:12:27.491Z,13.04
2023-05-09T04:14:07.276Z,13.08
2023-05-09T04:15:47.042Z,13.05
2023-05-09T04:17:26.805Z,13.06
2023-05-09T04:19:06.575Z,13.07
2023-05-09T04:20:46.390Z,13.03
2023-05-09T04:22:26.121Z,13.08
2023-05-09T04:24:05.883Z,13.07
2023-05-09T04:25:45.652Z,13.06
2023-05-09T04:27:25.455Z,13.04
2023-05-09T04:29:05.196Z,13.07
2023-05-09T04:30:45.127Z,13.02
2023-05-09T04:32:24.745Z,13.02
2023-05-09T04:34:04.505Z,13.03
2023-05-09T04:35:44.287Z,13.02
2023-05-09T04:37:24.069Z,13.04
2023-05-09T04:39:03.867Z,13
2023-05-09T04:40:43.594Z,13.03
2023-05-09T04:42:23.415Z,12.99
2023-05-09T04:44:03.139Z,13.01
2023-05-09T04:45:42.929Z,13
2023-05-09T04:47:22.671Z,13.02
2023-05-09T04:49:02.465Z,13
2023-05-09T04:50:42.216Z,13
2023-05-09T04:52:21.993Z,13.02
2023-05-09T04:54:01.766Z,13.01
2023-05-09T04:55:41.532Z,13.01
2023-05-09T04:57:21.370Z,13.01
2023-05-09T04:59:01.062Z,13.02
2023-05-09T05:00:40.848Z,13.05
2023-05-09T05:02:20.614Z,13.06
2023-05-09T05:04:00.394Z,13.13
2023-05-09T05:05:40.159Z,13.14
2023-05-09T05:07:19.921Z,13.17
2023-05-09T05:08:59.712Z,13.17
2023-05-09T05:10:39.462Z,13.2
2023-05-09T05:12:19.240Z,13.18
2023-05-09T05:13:59.016Z,13.24
2023-05-09T05:15:38.767Z,13.23
2023-05-09T05:17:18.548Z,13.23
2023-05-09T05:18:58.307Z,13.24
2023-05-09T05:20:38.075Z,13.21
2023-05-09T05:22:17.848Z,13.2
2023-05-09T05:23:57.624Z,13.24
2023-05-09T05:25:37.398Z,13.22
2023-05-09T05:27:17.267Z,13.24
2023-05-09T05:28:56.940Z,13.21
2023-05-09T05:30:36.760Z,13.24
2023-05-09T05:32:16.475Z,13.28
2023-05-09T05:33:56.258Z,13.3
2023-05-09T05:35:36.009Z,13.3
2023-05-09T05:37:15.795Z,13.34
2023-05-09T05:38:55.549Z,13.36
2023-05-09T05:40:35.312Z,13.41
2023-05-09T05:42:15.132Z,13.43
2023-05-09T05:43:54.858Z,13.47
2023-05-09T05:45:34.668Z,13.55
2023-05-09T05:47:14.630Z,13.56
2023-05-09T05:48:54.264Z,13.64
2023-05-09T05:50:33.932Z,13.68
2023-05-09T05:52:13.801Z,13.74
2023-05-09T05:53:53.484Z,13.77
2023-05-09T05:57:13.026Z,13.87
2023-05-09T05:58:52.805Z,13.91
2023-05-09T06:00:32.619Z,13.95
2023-05-09T06:02:12.336Z,14.01
2023-05-09T06:03:52.162Z,14.05
2023-05-09T06:05:31.967Z,14.09
2023-05-09T06:07:11.634Z,14.15
2023-05-09T06:08:51.486Z,14.2
2023-05-09T06:10:31.188Z,14.23
2023-05-09T06:12:10.952Z,14.26
2023-05-09T06:13:50.725Z,14.33
2023-05-09T06:15:30.496Z,14.35
2023-05-09T06:17:10.263Z,14.4
2023-05-09T06:18:50.035Z,14.49
2023-05-09T06:20:29.794Z,14.53
2023-05-09T06:22:09.585Z,14.57
2023-05-09T06:23:49.362Z,14.6
2023-05-09T06:25:29.108Z,14.64
2023-05-09T06:27:08.929Z,14.7
2023-05-09T06:28:48.671Z,14.76
2023-05-09T06:30:28.450Z,14.79
2023-05-09T06:32:08.204Z,14.84
2023-05-09T06:33:47.975Z,14.88
2023-05-09T06:35:27.787Z,14.9
2023-05-09T06:37:07.529Z,14.96
2023-05-09T06:38:47.328Z,15
2023-05-09T06:40:27.061Z,15.03
2023-05-09T06:42:06.912Z,15.05
2023-05-09T06:43:46.600Z,15.13
2023-05-09T06:45:26.504Z,15.12
2023-05-09T06:47:06.189Z,15.17
2023-05-09T06:48:45.895Z,15.21
2023-05-09T06:50:25.673Z,15.23
2023-05-09T06:52:05.465Z,15.28
2023-05-09T06:53:45.224Z,15.31
2023-05-09T06:55:24.998Z,15.33
2023-05-09T06:57:04.750Z,15.41
2023-05-09T06:58:44.531Z,15.41
2023-05-09T07:00:24.289Z,15.45
2023-05-09T07:02:04.088Z,15.47
2023-05-09T07:03:43.855Z,15.52
2023-05-09T07:05:23.607Z,15.57
2023-05-09T07:07:03.383Z,15.59
2023-05-09T07:08:43.151Z,15.61
2023-05-09T07:10:22.953Z,15.63
2023-05-09T07:12:02.688Z,15.71
2023-05-09T07:13:42.469Z,15.74
2023-05-09T07:15:22.225Z,15.75
2023-05-09T07:17:02.013Z,15.78
2023-05-09T07:18:41.789Z,15.8
2023-05-09T07:20:21.546Z,15.83
2023-05-09T07:22:01.318Z,15.88
2023-05-09T07:23:41.100Z,15.9
2023-05-09T07:25:20.862Z,15.92
2023-05-09T07:27:00.661Z,15.95
2023-05-09T07:28:40.420Z,15.99
2023-05-09T07:30:20.165Z,16.03
2023-05-09T07:31:59.938Z,16.03
2023-05-09T07:33:39.705Z,16.1
2023-05-09T07:35:19.480Z,16.09
2023-05-09T07:36:59.246Z,16.15
2023-05-09T07:38:39.015Z,16.15
2023-05-09T07:40:18.790Z,16.2
2023-05-09T07:41:58.613Z,16.21
2023-05-09T07:43:38.325Z,16.27
2023-05-09T07:45:18.104Z,16.28
2023-05-09T07:46:57.868Z,16.32
2023-05-09T07:48:37.701Z,16.36
2023-05-09T07:50:17.463Z,16.4
2023-05-09T07:51:57.182Z,16.41
2023-05-09T07:53:36.970Z,16.42
2023-05-09T07:55:16.752Z,16.5
2023-05-09T07:56:56.485Z,16.51
2023-05-09T07:58:36.258Z,16.57
2023-05-09T08:00:16.035Z,16.58
2023-05-09T08:01:55.803Z,16.62
2023-05-09T08:03:35.569Z,16.65
2023-05-09T08:05:15.350Z,16.68
2023-05-09T08:06:55.139Z,16.69
2023-05-09T08:08:34.886Z,16.75
2023-05-09T08:10:14.653Z,16.77
2023-05-09T08:11:54.427Z,16.79
2023-05-09T08:13:34.202Z,16.82
2023-05-09T08:15:13.975Z,16.87
2023-05-09T08:16:53.727Z,16.89
2023-05-09T08:18:33.513Z,16.93
2023-05-09T08:20:13.284Z,16.95
2023-05-09T08:21:53.041Z,16.99
2023-05-09T08:23:32.841Z,17.02
2023-05-09T08:25:12.585Z,17.04
2023-05-09T08:26:52.362Z,17.07
2023-05-09T08:28:32.170Z,17.11
2023-05-09T08:30:11.902Z,17.11
2023-05-09T08:31:51.683Z,17.1
2023-05-09T08:33:31.539Z,17.09
2023-05-09T08:35:11.253Z,17.04
2023-05-09T08:36:51.004Z,17.04
2023-05-09T08:38:30.787Z,17.01
2023-05-09T08:40:10.521Z,17.03
2023-05-09T08:41:50.290Z,17.04
2023-05-09T08:43:30.070Z,17.12
2023-05-09T08:45:09.934Z,17.16
2023-05-09T08:46:49.612Z,17.25
2023-05-09T08:48:29.376Z,17.32
2023-05-09T08:50:09.147Z,17.34
2023-05-09T08:51:48.912Z,17.39
2023-05-09T08:53:28.683Z,17.42
2023-05-09T08:55:08.464Z,17.45
2023-05-09T08:56:48.227Z,17.51
2023-05-09T08:58:27.988Z,17.54
2023-05-09T09:00:07.889Z,17.56
2023-05-09T09:01:47.543Z,17.62
2023-05-09T09:03:27.317Z,17.62
2023-05-09T09:05:07.105Z,17.65
2023-05-09T09:06:46.867Z,17.67
2023-05-09T09:08:26.630Z,17.68
2023-05-09T09:10:06.428Z,17.7
2023-05-09T09:11:46.221Z,17.74
2023-05-09T09:13:25.993Z,17.79
2023-05-09T09:15:05.712Z,17.79
2023-05-09T09:16:45.468Z,17.82
2023-05-09T09:18:25.315Z,17.86
2023-05-09T09:20:05.016Z,17.87
2023-05-09T09:21:44.839Z,17.9
2023-05-09T09:23:24.561Z,17.94
2023-05-09T09:25:04.348Z,17.95
2023-05-09T09:26:44.094Z,18.01
2023-05-09T09:28:23.866Z,18.04
2023-05-09T09:30:03.631Z,18.07
2023-05-09T09:31:43.432Z,18.09
2023-05-09T09:33:23.199Z,18.11
2023-05-09T09:35:02.962Z,18.16
2023-05-09T09:36:42.713Z,18.17
2023-05-09T09:38:22.506Z,18.2
2023-05-09T09:40:02.249Z,18.26
2023-05-09T09:41:42.117Z,18.28
2023-05-09T09:43:21.809Z,18.32
2023-05-09T09:45:01.561Z,18.34
2023-05-09T09:46:41.337Z,18.37
2023-05-09T09:48:21.109Z,18.41
2023-05-09T09:50:00.887Z,18.45
2023-05-09T09:51:40.646Z,18.45
2023-05-09T09:53:20.423Z,18.48
2023-05-09T09:55:00.262Z,18.51
2023-05-09T09:56:39.988Z,18.54
2023-05-09T09:58:19.737Z,18.57
2023-05-09T09:59:59.497Z,18.62
2023-05-09T10:01:39.291Z,18.68
2023-05-09T10:03:19.073Z,18.69
2023-05-09T10:04:58.823Z,18.71
2023-05-09T10:06:38.583Z,18.77
2023-05-09T10:08:18.362Z,18.79
2023-05-09T10:09:58.119Z,18.81
2023-05-09T10:11:37.902Z,18.86
2023-05-09T10:13:17.698Z,18.89
2023-05-09T10:14:57.474Z,18.92
2023-05-09T10:16:37.210Z,18.96
2023-05-09T10:18:17.184Z,18.99
2023-05-09T10:19:56.974Z,19.01
2023-05-09T10:21:36.600Z,19.04
2023-05-09T10:23:16.439Z,19.07
2023-05-09T10:24:56.143Z,19.09
2023-05-09T10:26:36.079Z,19.16
2023-05-09T10:28:15.770Z,19.18
2023-05-09T10:29:55.571Z,19.2
2023-05-09T10:31:35.283Z,19.2
2023-05-09T10:33:15.066Z,19.27
2023-05-09T10:34:54.677Z,19.31
2023-05-09T10:36:34.625Z,19.33
2023-05-09T10:38:14.216Z,19.37
2023-05-09T10:39:54.124Z,19.43
2023-05-09T10:41:33.913Z,19.43
2023-05-09T10:43:13.573Z,19.44
2023-05-09T10:44:53.442Z,19.46
2023-05-09T10:46:33.212Z,19.49
2023-05-09T10:48:12.941Z,19.54
2023-05-09T10:49:52.694Z,19.58
2023-05-09T10:51:32.422Z,19.6
2023-05-09T10:53:12.343Z,19.62
2023-05-09T10:54:52.053Z,19.69
2023-05-09T10:56:31.944Z,19.7
2023-05-09T10:58:11.457Z,19.76
2023-05-09T10:59:51.445Z,19.76
2023-05-09T11:01:31.012Z,19.77
2023-05-09T11:03:10.886Z,19.83
2023-05-09T11:04:50.566Z,19.85
2023-05-09T11:06:30.408Z,19.91
2023-05-09T11:08:10.148Z,19.93
2023-05-09T11:09:50.032Z,19.96
2023-05-09T11:11:29.649Z,19.99
2023-05-09T11:13:09.483Z,20.03
2023-05-09T11:14:49.282Z,20.04
2023-05-09T11:16:28.972Z,20.08
2023-05-09T11:18:08.836Z,20.12
2023-05-09T11:19:48.491Z,20.15
2023-05-09T11:21:28.257Z,20.16
2023-05-09T11:23:08.121Z,20.2
2023-05-09T11:24:47.810Z,20.27
2023-05-09T11:26:27.572Z,20.27
2023-05-09T11:28:07.349Z,20.34
2023-05-09T11:29:47.286Z,20.35
2023-05-09T11:31:26.883Z,20.34
2023-05-09T11:33:06.807Z,20.4
2023-05-09T11:34:46.436Z,20.43
2023-05-09T11:36:26.335Z,20.45
2023-05-09T11:38:06.095Z,20.52
2023-05-09T11:39:45.772Z,20.55
2023-05-09T11:41:25.542Z,20.56
2023-05-09T11:43:05.270Z,20.62
2023-05-09T11:44:45.040Z,20.64
2023-05-09T11:46:24.941Z,20.68
2023-05-09T11:48:04.631Z,20.68
2023-05-09T11:49:44.359Z,20.72
2023-05-09T11:51:24.204Z,20.79
2023-05-09T11:53:03.895Z,20.81
2023-05-09T11:54:43.671Z,20.83
2023-05-09T11:56:23.475Z,20.87
2023-05-09T11:58:03.297Z,20.87
2023-05-09T11:59:42.987Z,20.9
2023-05-09T12:01:22.832Z,20.96
2023-05-09T12:03:02.523Z,20.97
2023-05-09T12:04:42.379Z,21.03
2023-05-09T12:06:22.073Z,21.05
2023-05-09T12:08:01.862Z,21.08
2023-05-09T12:09:41.688Z,21.11
2023-05-09T12:11:21.421Z,21.15
2023-05-09T12:13:01.236Z,21.17
2023-05-09T12:14:40.900Z,21.2
2023-05-09T12:16:20.760Z,21.21
2023-05-09T12:18:00.457Z,21.24
2023-05-09T12:19:40.254Z,21.29
2023-05-09T12:21:20.003Z,21.3
2023-05-09T12:22:59.868Z,21.34
2023-05-09T12:24:39.546Z,21.4
2023-05-09T12:26:19.377Z,21.41
2023-05-09T12:27:59.060Z,21.44
2023-05-09T12:29:38.890Z,21.49
2023-05-09T12:31:18.662Z,21.51
2023-05-09T12:32:58.404Z,21.53
2023-05-09T12:34:38.282Z,21.58
2023-05-09T12:36:18.027Z,21.6
2023-05-09T12:37:57.832Z,21.63
2023-05-09T12:39:37.498Z,21.68
2023-05-09T12:41:17.250Z,21.67
2023-05-09T12:42:57.217Z,21.7
2023-05-09T12:44:36.950Z,21.74
2023-05-09T12:46:16.685Z,21.77
2023-05-09T12:47:56.479Z,21.81
2023-05-09T12:49:36.181Z,21.83
2023-05-09T12:51:15.845Z,21.89
2023-05-09T12:52:55.697Z,21.9
2023-05-09T12:54:35.568Z,21.94
2023-05-09T12:56:15.179Z,21.95
2023-05-09T12:57:54.966Z,21.98
2023-05-09T12:59:34.948Z,22.04
2023-05-09T13:01:14.604Z,22.07
2023-05-09T13:02:54.431Z,22.07
2023-05-09T13:04:34.014Z,22.11
2023-05-09T13:06:13.799Z,22.14
2023-05-09T13:07:53.570Z,22.18
2023-05-09T13:09:33.329Z,22.19
2023-05-09T13:11:13.101Z,22.21
2023-05-09T13:12:52.878Z,22.23
2023-05-09T13:14:32.685Z,22.27
2023-05-09T13:16:12.407Z,22.29
2023-05-09T13:17:52.185Z,22.34
2023-05-09T13:19:32.019Z,22.33
2023-05-09T13:21:11.788Z,22.36
2023-05-09T13:22:51.489Z,22.4
2023-05-09T13:24:31.269Z,22.42
2023-05-09T13:26:11.043Z,22.46
2023-05-09T13:27:50.792Z,22.45
2023-05-09T13:29:30.573Z,22.51
2023-05-09T13:31:10.365Z,22.54
2023-05-09T13:32:50.113Z,22.54
2023-05-09T13:34:29.912Z,22.57
2023-05-09T13:36:09.649Z,22.6
2023-05-09T13:37:49.410Z,22.6
2023-05-09T13:39:29.189Z,22.64
2023-05-09T13:41:09.016Z,22.68
2023-05-09T13:42:48.743Z,22.71
2023-05-09T13:44:28.522Z,22.72
2023-05-09T13:46:08.392Z,22.73
2023-05-09T13:47:48.061Z,22.78
2023-05-09T13:49:27.818Z,22.79
2023-05-09T13:51:07.626Z,22.79
2023-05-09T13:52:47.342Z,22.84
2023-05-09T13:54:27.121Z,22.83
2023-05-09T13:56:06.919Z,22.86
2023-05-09T13:57:46.655Z,22.91
2023-05-09T13:59:26.454Z,22.93
2023-05-09T14:01:06.198Z,22.95
2023-05-09T14:02:46.028Z,22.96
2023-05-09T14:04:25.782Z,23
2023-05-09T14:06:05.511Z,23.01
2023-05-09T14:07:45.285Z,23.04
2023-05-09T14:09:25.059Z,23.04
2023-05-09T14:11:04.875Z,23.09
2023-05-09T14:12:44.600Z,23.1
2023-05-09T14:14:24.372Z,23.1
2023-05-09T14:16:04.136Z,23.15
2023-05-09T14:17:43.912Z,23.16
2023-05-09T14:19:23.700Z,23.19
2023-05-09T14:21:03.467Z,23.2
2023-05-09T14:22:43.231Z,23.22
2023-05-09T14:24:22.999Z,23.27
2023-05-09T14:26:02.793Z,23.27
2023-05-09T14:27:42.540Z,23.29
2023-05-09T14:29:22.299Z,23.29
2023-05-09T14:31:02.062Z,23.31
2023-05-09T14:32:41.833Z,23.33
2023-05-09T14:34:21.611Z,23.35
2023-05-09T14:36:01.378Z,23.39
2023-05-09T14:37:41.155Z,23.4
2023-05-09T14:39:20.984Z,23.41
2023-05-09T14:41:00.694Z,23.44
2023-05-09T14:42:40.470Z,23.46
2023-05-09T14:44:20.222Z,23.45
2023-05-09T14:46:00.000Z,23.48
2023-05-09T14:47:39.769Z,23.51
2023-05-09T14:49:19.544Z,23.51
2023-05-09T14:50:59.318Z,23.53
2023-05-09T14:52:39.092Z,23.55
2023-05-09T14:54:18.851Z,23.57
2023-05-09T14:55:58.622Z,23.59
2023-05-09T14:57:38.392Z,23.61
2023-05-09T14:59:18.164Z,23.63
2023-05-09T15:00:57.932Z,23.64
2023-05-09T15:02:37.712Z,23.67
2023-05-09T15:04:17.486Z,23.7
2023-05-09T15:05:57.243Z,23.7
2023-05-09T15:07:37.038Z,23.71
2023-05-09T15:09:16.821Z,23.74
2023-05-09T15:10:56.550Z,23.75
2023-05-09T15:12:36.333Z,23.77
2023-05-09T15:14:16.093Z,23.79
2023-05-09T15:15:55.926Z,23.81
2023-05-09T15:17:35.652Z,23.83
2023-05-09T15:19:15.423Z,23.84
2023-05-09T15:20:55.185Z,23.85
2023-05-09T15:22:34.951Z,23.86
2023-05-09T15:24:14.723Z,23.89
2023-05-09T15:25:54.498Z,23.92
2023-05-09T15:27:34.262Z,23.92
2023-05-09T15:29:14.037Z,23.95
2023-05-09T15:30:53.832Z,23.95
2023-05-09T15:32:33.654Z,23.97
2023-05-09T15:34:13.357Z,23.98
2023-05-09T15:35:53.129Z,23.99
2023-05-09T15:37:32.884Z,24.02
2023-05-09T15:39:12.656Z,24.02
2023-05-09T15:40:52.443Z,24.04
2023-05-09T15:42:32.217Z,24.05
2023-05-09T15:44:11.979Z,24.08
2023-05-09T15:45:51.760Z,24.08
2023-05-09T15:47:31.581Z,24.1
2023-05-09T15:49:11.348Z,24.1
2023-05-09T15:50:51.060Z,24.09
2023-05-09T15:52:30.838Z,24.11
2023-05-09T15:54:10.598Z,24.14
2023-05-09T15:55:50.368Z,24.14
2023-05-09T15:57:30.232Z,24.16
2023-05-09T15:59:09.916Z,24.16
2023-05-09T16:00:49.686Z,24.16
2023-05-09T16:02:29.441Z,24.17
2023-05-09T16:04:09.231Z,24.19
2023-05-09T16:05:48.983Z,24.19
2023-05-09T16:07:28.838Z,24.21
2023-05-09T16:09:08.529Z,24.19
2023-05-09T16:10:48.311Z,24.21
2023-05-09T16:12:28.081Z,24.23
2023-05-09T16:14:07.864Z,24.2
2023-05-09T16:15:47.626Z,24.22
2023-05-09T16:17:27.391Z,24.22
2023-05-09T16:19:07.174Z,24.21
2023-05-09T16:20:46.937Z,24.24
2023-05-09T16:22:26.699Z,24.23
2023-05-09T16:24:06.472Z,24.24
2023-05-09T16:25:46.251Z,24.25
2023-05-09T16:27:26.006Z,24.26
2023-05-09T16:29:05.775Z,24.26
2023-05-09T16:30:45.565Z,24.26
2023-05-09T16:32:25.334Z,24.25
2023-05-09T16:34:05.104Z,24.27
2023-05-09T16:35:44.858Z,24.25
2023-05-09T16:37:24.648Z,24.25
2023-05-09T16:39:04.399Z,24.25
2023-05-09T16:40:44.181Z,24.27
2023-05-09T16:42:23.942Z,24.28
2023-05-09T16:44:03.724Z,24.29
2023-05-09T16:45:43.493Z,24.29
2023-05-09T16:47:23.307Z,24.28
2023-05-09T16:49:03.039Z,24.32
2023-05-09T16:50:42.793Z,24.3
2023-05-09T16:52:22.582Z,24.3
2023-05-09T16:54:02.350Z,24.33
2023-05-09T16:55:42.184Z,24.31
2023-05-09T16:57:21.884Z,24.32
2023-05-09T16:59:01.649Z,24.3
2023-05-09T17:00:41.421Z,24.31
2023-05-09T17:02:21.235Z,24.31
2023-05-09T17:04:00.964Z,24.32
2023-05-09T17:05:40.735Z,24.32
2023-05-09T17:07:20.521Z,24.34
2023-05-09T17:09:00.275Z,24.31
2023-05-09T17:10:40.048Z,24.32
2023-05-09T17:12:19.816Z,24.3
2023-05-09T17:13:59.598Z,24.29
2023-05-09T17:15:39.348Z,24.29
2023-05-09T17:17:19.133Z,24.27
2023-05-09T17:18:58.913Z,24.28
2023-05-09T17:20:38.695Z,24.26
2023-05-09T17:22:18.438Z,24.26
2023-05-09T17:23:58.210Z,24.22
2023-05-09T17:25:37.980Z,24.24
2023-05-09T17:27:17.741Z,24.24
2023-05-09T17:28:57.531Z,24.22
2023-05-09T17:30:37.289Z,24.22
2023-05-09T17:32:17.124Z,24.19
2023-05-09T17:33:56.845Z,24.18
2023-05-09T17:35:36.617Z,24.18
2023-05-09T17:37:16.373Z,24.15
2023-05-09T17:38:56.150Z,24.14
2023-05-09T17:40:35.910Z,24.13
2023-05-09T17:42:15.698Z,24.09
2023-05-09T17:43:55.463Z,24.08
2023-05-09T17:45:35.226Z,24.08
2023-05-09T17:47:15.005Z,24.03
2023-05-09T17:48:54.821Z,23.99
2023-05-09T17:50:34.533Z,23.97
2023-05-09T17:52:14.313Z,23.96
2023-05-09T17:53:54.097Z,23.94
2023-05-09T17:55:33.856Z,23.92
2023-05-09T17:57:13.647Z,23.9
2023-05-09T17:58:53.402Z,23.86
2023-05-09T18:00:33.175Z,23.83
2023-05-09T18:02:12.987Z,23.81
2023-05-09T18:03:52.703Z,23.77
2023-05-09T18:05:32.475Z,23.73
2023-05-09T18:07:12.253Z,23.73
2023-05-09T18:08:52.022Z,23.68
2023-05-09T18:10:31.790Z,23.67
2023-05-09T18:12:11.636Z,23.6
2023-05-09T18:13:51.381Z,23.59
2023-05-09T18:15:31.175Z,23.52
2023-05-09T18:17:10.882Z,23.51
2023-05-09T18:18:50.698Z,23.47
2023-05-09T18:20:30.589Z,23.42
2023-05-09T18:22:10.178Z,23.4
2023-05-09T18:23:50.037Z,23.36
2023-05-09T18:25:29.717Z,23.31
2023-05-09T18:27:09.489Z,23.27
2023-05-09T18:28:49.300Z,23.23
2023-05-09T18:30:29.063Z,23.18
2023-05-09T18:32:08.834Z,23.15
2023-05-09T18:33:48.553Z,23.12
2023-05-09T18:35:28.416Z,23.09
2023-05-09T18:37:08.247Z,23.07
2023-05-09T18:38:47.894Z,23.03
2023-05-09T18:40:27.650Z,22.99
2023-05-09T18:42:07.399Z,22.96
2023-05-09T18:43:47.225Z,22.91
2023-05-09T18:45:26.953Z,22.88
2023-05-09T18:47:06.702Z,22.86
2023-05-09T18:48:46.479Z,22.8
2023-05-09T18:50:26.240Z,22.76
2023-05-09T18:52:06.012Z,22.74
2023-05-09T18:53:45.837Z,22.71
2023-05-09T18:55:25.566Z,22.67
2023-05-09T18:57:05.356Z,22.64
2023-05-09T18:58:45.074Z,22.59
2023-05-09T19:00:24.844Z,22.6
2023-05-09T19:02:04.618Z,22.52
2023-05-09T19:03:44.368Z,22.48
2023-05-09T19:05:24.252Z,22.46
2023-05-09T19:07:04.068Z,22.43
2023-05-09T19:08:43.849Z,22.4
2023-05-09T19:10:23.596Z,22.33
2023-05-09T19:12:03.399Z,22.28
2023-05-09T19:13:43.051Z,22.23
2023-05-09T19:15:22.748Z,22.17
2023-05-09T19:17:02.599Z,22.13
2023-05-09T19:18:42.333Z,22.07
2023-05-09T19:20:22.059Z,22.01
2023-05-09T19:22:01.865Z,21.96
2023-05-09T19:23:41.586Z,21.93
2023-05-09T19:25:21.558Z,21.89
2023-05-09T19:27:01.209Z,21.82
2023-05-09T19:28:40.940Z,21.77
2023-05-09T19:30:20.661Z,21.72
2023-05-09T19:32:00.575Z,21.69
2023-05-09T19:33:40.294Z,21.63
2023-05-09T19:35:20.010Z,21.58
2023-05-09T19:36:59.743Z,21.55
2023-05-09T19:38:39.498Z,21.49
2023-05-09T19:40:19.351Z,21.45
2023-05-09T19:41:59.040Z,21.4
2023-05-09T19:43:38.933Z,21.38
2023-05-09T19:45:18.647Z,21.33
2023-05-09T19:46:58.346Z,21.29
2023-05-09T19:48:38.203Z,21.26
2023-05-09T19:50:18.023Z,21.2
2023-05-09T19:51:57.707Z,21.17
2023-05-09T19:53:37.441Z,21.11
2023-05-09T19:55:17.192Z,21.08
2023-05-09T19:56:56.943Z,21.06
2023-05-09T19:58:36.831Z,21.01
2023-05-09T20:00:16.499Z,20.97
2023-05-09T20:01:56.330Z,20.93
2023-05-09T20:03:36.022Z,20.88
2023-05-09T20:05:15.785Z,20.85
2023-05-09T20:06:55.579Z,20.81
2023-05-09T20:08:35.340Z,20.79
2023-05-09T20:10:15.087Z,20.73
2023-05-09T20:11:54.855Z,20.69
2023-05-09T20:13:34.616Z,20.66
2023-05-09T20:15:14.373Z,20.63
2023-05-09T20:16:54.189Z,20.61
2023-05-09T20:18:33.945Z,20.56
2023-05-09T20:20:13.727Z,20.54
2023-05-09T20:21:53.457Z,20.5
2023-05-09T20:23:33.237Z,20.45
2023-05-09T20:25:13.002Z,20.41
2023-05-09T20:26:52.810Z,20.39
2023-05-09T20:28:32.687Z,20.36
2023-05-09T20:30:12.352Z,20.34
2023-05-09T20:31:52.062Z,20.29
2023-05-09T20:33:31.833Z,20.26
2023-05-09T20:35:11.669Z,20.21
2023-05-09T20:36:51.368Z,20.2
2023-05-09T20:38:31.154Z,20.16
2023-05-09T20:40:10.883Z,20.12
2023-05-09T20:41:50.718Z,20.12
2023-05-09T20:43:30.478Z,20.06
2023-05-09T20:45:10.199Z,20.03
2023-05-09T20:46:49.981Z,20.02
2023-05-09T20:48:29.733Z,19.99
2023-05-09T20:50:09.516Z,19.95
2023-05-09T20:51:49.295Z,19.91
2023-05-09T20:53:29.059Z,19.89
2023-05-09T20:55:08.814Z,19.86
2023-05-09T20:56:48.574Z,19.82
2023-05-09T20:58:28.349Z,19.78
2023-05-09T21:00:08.158Z,19.75
2023-05-09T21:01:48.079Z,19.74
2023-05-09T21:03:27.651Z,19.69
2023-05-09T21:05:07.425Z,19.67
2023-05-09T21:06:47.164Z,19.64
2023-05-09T21:08:26.945Z,19.62
2023-05-09T21:10:06.754Z,19.58
2023-05-09T21:11:46.500Z,19.57
2023-05-09T21:13:26.257Z,19.54
2023-05-09T21:15:06.032Z,19.52
2023-05-09T21:16:45.803Z,19.46
2023-05-09T21:18:25.602Z,19.43
2023-05-09T21:20:05.314Z,19.42
2023-05-09T21:21:45.120Z,19.37
2023-05-09T21:23:24.855Z,19.37
2023-05-09T21:25:04.620Z,19.34
2023-05-09T21:26:44.449Z,19.32
2023-05-09T21:28:24.151Z,19.29
2023-05-09T21:30:03.907Z,19.25
2023-05-09T21:31:43.689Z,19.23
2023-05-09T21:33:23.466Z,19.19
2023-05-09T21:35:03.229Z,19.17